Time;durP1;ratioP1;P1;durP2;ratioP2;P2;SDS_P1;SDS_P2;PMS_P1;PMS_P2;Temp;Humidity;BMP_temperature;BMP_pressure;BME280_temperature;BME280_humidity;BME280_pressure;Samples;Min_cycle;Max_cycle;Signal;HPM_P1;HPM_P2
2022/05/30 00:00:23;;;;;;;0.67;0.67;;;9.30;99.90;9.20;100046.00;;;;4957677;28;86965;-69
2022/05/30 00:02:50;;;;;;;3.23;0.60;;;9.30;99.90;9.20;100037.00;;;;4955854;28;88034;-71
2022/05/30 00:05:17;;;;;;;1.17;0.70;;;9.20;99.90;9.20;100050.00;;;;4971290;28;88727;-69
2022/05/30 00:07:43;;;;;;;1.43;0.67;;;9.30;99.90;9.20;100037.00;;;;4956380;28;88721;-69
2022/05/30 00:10:10;;;;;;;0.70;0.70;;;9.20;99.90;9.20;100039.00;;;;4956718;28;88767;-69
2022/05/30 00:12:36;;;;;;;0.60;0.47;;;9.20;99.90;9.20;100042.00;;;;4954786;28;88216;-70
2022/05/30 00:15:05;;;;;;;4.00;0.83;;;9.20;99.90;9.20;100039.00;;;;4956982;28;87749;-69
2022/05/30 00:17:31;;;;;;;1.33;0.87;;;9.20;99.90;9.20;100037.00;;;;4955770;28;101040;-69
2022/05/30 00:19:56;;;;;;;0.83;0.50;;;9.20;99.90;9.20;100033.00;;;;4955821;28;117829;-70
2022/05/30 00:22:22;;;;;;;0.73;0.60;;;9.20;99.90;9.20;100042.00;;;;4955352;28;98943;-68
2022/05/30 00:24:49;;;;;;;0.67;0.67;;;9.20;99.90;9.30;100044.00;;;;4956158;28;110275;-68
2022/05/30 00:27:15;;;;;;;1.23;0.80;;;9.30;99.90;9.30;100047.00;;;;4956084;28;87722;-70
2022/05/30 00:29:42;;;;;;;1.03;0.60;;;9.30;99.90;9.30;100038.00;;;;4955992;28;106392;-69
2022/05/30 00:32:08;;;;;;;1.00;0.70;;;9.30;99.90;9.30;100040.00;;;;4955116;28;88824;-70
2022/05/30 00:34:35;;;;;;;0.77;0.60;;;9.30;99.90;9.20;100036.00;;;;4971183;28;87929;-70
2022/05/30 00:37:00;;;;;;;1.00;0.93;;;9.30;99.90;9.20;100033.00;;;;4937645;28;87977;-70
2022/05/30 00:39:26;;;;;;;2.50;0.97;;;9.30;99.90;9.20;100028.00;;;;4956117;28;89891;-68
2022/05/30 00:41:53;;;;;;;2.00;0.80;;;9.20;99.90;9.20;100035.00;;;;4955706;28;107360;-69
2022/05/30 00:44:18;;;;;;;0.80;0.80;;;9.20;99.90;9.10;100026.00;;;;4956573;28;87948;-69
2022/05/30 00:46:44;;;;;;;0.53;0.53;;;9.20;99.90;9.10;100031.00;;;;4955811;28;108036;-69
2022/05/30 00:49:13;;;;;;;1.03;0.73;;;9.20;99.90;9.10;100024.00;;;;4940320;28;116230;-70
2022/05/30 00:51:46;;;;;;;0.83;0.83;;;9.10;99.90;9.00;100028.00;;;;4957847;28;87824;-70
2022/05/30 00:54:18;;;;;;;0.40;0.33;;;9.10;99.90;9.00;100028.00;;;;4937268;28;87819;-70
2022/05/30 00:56:54;;;;;;;0.87;0.50;;;9.10;99.90;9.00;100023.00;;;;4955335;28;94830;-69
2022/05/30 00:59:21;;;;;;;0.83;0.60;;;9.00;99.90;8.90;100024.00;;;;4937235;28;88013;-70
2022/05/30 01:01:47;;;;;;;0.97;0.60;;;9.00;99.90;8.90;100028.00;;;;4954659;28;110088;-69
2022/05/30 01:07:04;;;;;;;1.30;1.20;;;8.90;99.90;8.90;100018.00;;;;4937309;28;87929;-69
2022/05/30 01:09:40;;;;;;;0.40;0.40;;;8.90;99.90;8.90;100022.00;;;;4955411;28;87863;-70
2022/05/30 01:12:10;;;;;;;0.70;0.70;;;8.90;99.90;8.80;100019.00;;;;4954904;28;88777;-69
2022/05/30 01:15:27;;;;;;;1.03;1.00;;;8.90;99.90;8.70;100024.00;;;;4956489;28;87041;-69
2022/05/30 01:18:20;;;;;;;1.30;0.63;;;8.90;99.90;8.80;100016.00;;;;4931140;28;88009;-69
2022/05/30 01:21:24;;;;;;;0.50;0.50;;;8.80;99.90;8.70;100017.00;;;;4970426;28;87851;-70
2022/05/30 01:24:21;;;;;;;1.20;1.07;;;8.80;99.90;8.70;100023.00;;;;4955331;28;88913;-69
2022/05/30 01:27:29;;;;;;;0.63;0.60;;;8.80;99.90;8.60;100017.00;;;;4916393;28;102119;-69
2022/05/30 01:30:03;;;;;;;0.57;0.57;;;8.70;99.90;8.60;100017.00;;;;4934617;28;88161;-69
2022/05/30 01:32:28;;;;;;;0.67;0.67;;;8.70;99.90;8.60;100015.00;;;;4916837;28;95448;-68
2022/05/30 01:34:54;;;;;;;1.87;0.77;;;8.70;99.90;8.60;100007.00;;;;4935300;28;116802;-68
2022/05/30 01:37:20;;;;;;;0.83;0.83;;;8.60;99.90;8.50;100015.00;;;;4935651;28;110749;-68
2022/05/30 01:39:46;;;;;;;0.83;0.83;;;8.60;99.90;8.50;100003.00;;;;4936365;28;87568;-69
2022/05/30 01:42:15;;;;;;;0.63;0.63;;;8.60;99.90;8.50;100006.00;;;;4917216;28;87502;-69
2022/05/30 01:44:40;;;;;;;1.60;0.73;;;8.60;99.90;8.40;99999.00;;;;4934777;28;88227;-70
2022/05/30 01:47:06;;;;;;;0.80;0.77;;;8.50;99.90;8.40;100000.00;;;;4937920;28;108354;-69
2022/05/30 01:49:32;;;;;;;0.90;0.70;;;8.40;99.90;8.30;99995.00;;;;4919348;28;108181;-69
2022/05/30 01:51:58;;;;;;;0.90;0.67;;;8.40;99.90;8.30;100003.00;;;;4940206;28;115798;-70
2022/05/30 01:54:23;;;;;;;1.10;0.90;;;8.40;99.90;8.30;99999.00;;;;4935624;28;87667;-69
2022/05/30 01:56:49;;;;;;;7.73;0.93;;;8.40;99.90;8.30;100007.00;;;;4934433;28;110345;-68
2022/05/30 01:59:15;;;;;;;1.03;0.80;;;8.30;99.90;8.20;100003.00;;;;4935714;28;87960;-69
2022/05/30 02:01:45;;;;;;;1.10;0.80;;;8.30;99.90;8.20;100009.00;;;;4965470;28;91696;-70
2022/05/30 02:04:12;;;;;;;2.97;1.13;;;8.30;99.90;8.10;100001.00;;;;4949421;28;87871;-69
2022/05/30 02:06:38;;;;;;;0.60;0.60;;;8.20;99.90;8.10;100003.00;;;;4966807;28;87365;-70
2022/05/30 02:09:05;;;;;;;1.40;0.70;;;8.20;99.90;8.10;100005.00;;;;4930270;28;107859;-69
2022/05/30 02:11:31;;;;;;;3.77;1.57;;;8.20;99.90;8.00;100007.00;;;;4934975;28;104362;-68
2022/05/30 02:13:57;;;;;;;1.13;1.00;;;8.10;99.90;8.00;100011.00;;;;4933942;28;107781;-69
2022/05/30 02:19:09;;;;;;;1.13;0.97;;;8.00;99.90;7.90;100020.00;;;;4937896;28;87663;-70
2022/05/30 02:21:35;;;;;;;0.83;0.83;;;8.00;99.90;7.90;100017.00;;;;4938661;28;88018;-69
2022/05/30 02:24:03;;;;;;;0.60;0.60;;;8.00;99.90;7.80;100019.00;;;;4938632;28;88614;-69
2022/05/30 02:26:29;;;;;;;1.87;0.80;;;7.90;99.90;7.80;100023.00;;;;4951026;28;87780;-68
2022/05/30 02:28:55;;;;;;;0.70;0.70;;;7.90;99.90;7.80;100021.00;;;;4971814;28;108400;-69
2022/05/30 02:31:21;;;;;;;1.30;1.17;;;7.90;99.90;7.70;100025.00;;;;4958726;28;90407;-69
2022/05/30 02:36:39;;;;;;;1.17;1.07;;;7.80;99.90;7.70;100032.00;;;;4956402;28;87926;-68
2022/05/30 02:39:16;;;;;;;4.50;1.33;;;7.80;99.90;7.70;100024.00;;;;4957160;28;88865;-68
2022/05/30 02:41:44;;;;;;;1.47;1.23;;;7.70;99.90;7.70;100031.00;;;;4958390;28;88219;-68
2022/05/30 02:44:10;;;;;;;1.40;0.97;;;7.80;99.90;7.70;100032.00;;;;4957747;28;88944;-69
2022/05/30 02:46:36;;;;;;;0.80;0.70;;;7.70;99.90;7.70;100022.00;;;;4957471;28;103870;-69
2022/05/30 02:49:03;;;;;;;1.17;1.00;;;7.80;99.90;7.70;100034.00;;;;4977161;28;97761;-69
2022/05/30 02:51:38;;;;;;;1.20;1.10;;;7.70;99.90;7.80;100023.00;;;;4977954;28;88160;-69
2022/05/30 02:54:04;;;;;;;2.07;1.13;;;8.00;99.90;7.80;100023.00;;;;4977775;28;88003;-69
2022/05/30 02:56:30;;;;;;;4.03;1.43;;;7.90;99.90;7.80;100026.00;;;;4962566;28;87100;-69
2022/05/30 02:59:01;;;;;;;1.43;0.90;;;7.90;99.90;7.90;100034.00;;;;4957165;28;109838;-69
2022/05/30 03:01:27;;;;;;;0.97;0.80;;;7.90;99.90;7.90;100023.00;;;;4957972;28;88984;-69
2022/05/30 03:03:53;;;;;;;2.37;1.00;;;8.00;99.90;8.00;100017.00;;;;4971903;28;88739;-69
2022/05/30 03:06:19;;;;;;;0.87;0.87;;;8.10;99.90;8.00;100027.00;;;;4957658;28;87645;-69
2022/05/30 03:08:45;;;;;;;0.73;0.73;;;8.00;99.90;8.00;100028.00;;;;4957632;28;98656;-69
2022/05/30 03:11:11;;;;;;;0.77;0.63;;;8.10;99.90;8.00;100029.00;;;;4939107;28;89280;-69
2022/05/30 03:13:38;;;;;;;0.87;0.80;;;8.10;99.90;8.10;100034.00;;;;4957105;28;87839;-69
2022/05/30 03:16:04;;;;;;;4.07;0.93;;;8.10;99.90;8.10;100031.00;;;;4956291;28;111436;-69
2022/05/30 03:18:31;;;;;;;1.20;0.80;;;8.20;99.90;8.20;100048.00;;;;4957346;28;87678;-69
2022/05/30 03:20:57;;;;;;;1.50;1.07;;;8.20;99.90;8.20;100039.00;;;;4972711;28;86958;-68
2022/05/30 03:23:23;;;;;;;1.97;1.43;;;8.20;99.90;8.20;100042.00;;;;4956812;28;87579;-69
2022/05/30 03:25:49;;;;;;;0.90;0.87;;;8.30;99.90;8.30;100040.00;;;;4957552;28;87884;-69
2022/05/30 03:28:16;;;;;;;1.00;0.90;;;8.30;99.90;8.30;100039.00;;;;4955751;28;88834;-69
2022/05/30 03:30:42;;;;;;;1.30;0.97;;;8.30;99.90;8.30;100045.00;;;;4955750;28;109784;-69
2022/05/30 03:33:08;;;;;;;1.23;1.00;;;8.30;99.90;8.30;100040.00;;;;4955875;28;117470;-70
2022/05/30 03:35:36;;;;;;;0.87;0.87;;;8.40;99.90;8.40;100039.00;;;;4956430;28;110775;-70
2022/05/30 03:38:03;;;;;;;2.90;0.83;;;8.40;99.90;8.40;100048.00;;;;4956263;28;87724;-70
2022/05/30 03:40:29;;;;;;;1.77;1.00;;;8.50;99.90;8.50;100052.00;;;;4938638;28;87715;-70
2022/05/30 03:42:55;;;;;;;2.00;1.10;;;8.50;99.90;8.50;100041.00;;;;4955665;28;117153;-70
2022/05/30 03:45:20;;;;;;;0.73;0.70;;;8.60;99.90;8.60;100038.00;;;;4938648;28;109659;-70
2022/05/30 03:47:47;;;;;;;2.07;1.10;;;8.60;99.90;8.60;100047.00;;;;4962840;28;109294;-70
2022/05/30 03:50:24;;;;;;;0.80;0.80;;;8.60;99.90;8.60;100047.00;;;;4976244;28;88713;-70
2022/05/30 03:52:51;;;;;;;1.63;1.53;;;8.70;99.90;8.70;100051.00;;;;4976025;28;88743;-69
2022/05/30 03:55:21;;;;;;;1.27;1.17;;;8.70;99.90;8.70;100049.00;;;;4972654;28;87797;-69
2022/05/30 03:57:47;;;;;;;0.77;0.70;;;8.70;99.90;8.70;100051.00;;;;4956390;28;87830;-69
2022/05/30 04:00:20;;;;;;;1.53;1.33;;;8.80;99.90;8.80;100059.00;;;;4956163;28;88259;-69
2022/05/30 04:02:49;;;;;;;1.97;1.20;;;8.80;99.90;8.80;100045.00;;;;4956382;28;88779;-69
2022/05/30 04:05:17;;;;;;;1.17;0.90;;;8.80;99.90;8.90;100059.00;;;;4953218;28;87957;-69
2022/05/30 04:07:43;;;;;;;1.77;1.10;;;8.90;99.90;8.90;100056.00;;;;4956643;28;89341;-69
2022/05/30 04:10:09;;;;;;;0.80;0.80;;;8.90;99.90;9.00;100062.00;;;;4955641;28;116575;-69
2022/05/30 04:12:36;;;;;;;0.80;0.80;;;9.00;99.90;9.00;100051.00;;;;4955129;28;116968;-69
2022/05/30 04:15:03;;;;;;;0.90;0.90;;;9.00;99.90;9.10;100073.00;;;;4956650;28;87794;-69
2022/05/30 04:17:34;;;;;;;2.20;0.97;;;9.10;99.90;9.20;100067.00;;;;4935150;28;99188;-70
2022/05/30 04:20:00;;;;;;;1.00;0.67;;;9.10;99.90;9.20;100061.00;;;;4918579;28;87969;-68
2022/05/30 04:22:25;;;;;;;1.70;1.20;;;9.20;99.90;9.20;100075.00;;;;4936352;28;98018;-68
2022/05/30 04:24:52;;;;;;;2.10;1.27;;;9.20;99.90;9.30;100059.00;;;;4934400;28;110160;-68
2022/05/30 04:27:18;;;;;;;2.23;1.03;;;9.30;99.90;9.30;100073.00;;;;4954701;28;109247;-69
2022/05/30 04:29:56;;;;;;;1.37;1.07;;;9.30;99.90;9.30;100066.00;;;;4955879;28;113532;-69
2022/05/30 04:32:22;;;;;;;2.63;1.20;;;9.30;99.90;9.40;100066.00;;;;4955246;28;117220;-69
2022/05/30 04:34:48;;;;;;;1.53;1.43;;;9.40;99.90;9.40;100066.00;;;;4956470;28;88819;-69
2022/05/30 04:37:14;;;;;;;1.40;1.10;;;9.40;99.90;9.50;100074.00;;;;4955779;28;108320;-69
2022/05/30 04:39:40;;;;;;;3.10;1.43;;;9.50;99.90;9.60;100065.00;;;;4969721;28;94856;-69
2022/05/30 04:42:06;;;;;;;1.60;1.33;;;9.50;99.90;9.60;100068.00;;;;4954075;28;118448;-69
2022/05/30 04:44:32;;;;;;;2.80;1.57;;;9.60;99.90;9.70;100080.00;;;;4953579;28;88037;-68
2022/05/30 04:46:58;;;;;;;1.97;1.50;;;9.70;99.90;9.70;100085.00;;;;4963116;28;87773;-69
2022/05/30 04:49:25;;;;;;;1.10;1.00;;;9.70;99.90;9.80;100077.00;;;;4970588;28;117175;-68
2022/05/30 04:51:58;;;;;;;2.80;1.83;;;9.70;99.90;9.80;100070.00;;;;4971901;28;95014;-69
2022/05/30 04:54:25;;;;;;;1.47;1.37;;;9.80;99.90;9.90;100092.00;;;;4945606;28;88134;-69
2022/05/30 04:56:51;;;;;;;1.57;1.40;;;9.80;99.90;9.90;100088.00;;;;4965412;28;87806;-68
2022/05/30 04:59:17;;;;;;;1.63;0.93;;;9.80;99.90;9.90;100095.00;;;;4971509;28;88115;-69
2022/05/30 05:01:43;;;;;;;2.73;1.63;;;9.90;99.90;9.90;100082.00;;;;4964442;28;110491;-68
2022/05/30 05:04:11;;;;;;;2.87;1.20;;;9.90;99.90;9.90;100092.00;;;;4970677;28;110870;-68
2022/05/30 05:06:37;;;;;;;1.60;1.03;;;9.90;99.90;9.90;100092.00;;;;4964822;28;88841;-69
2022/05/30 05:09:15;;;;;;;2.53;1.43;;;9.90;99.90;9.90;100089.00;;;;4955448;28;89418;-69
2022/05/30 05:11:42;;;;;;;1.80;0.93;;;9.90;99.90;9.90;100088.00;;;;4964629;28;118393;-69
2022/05/30 05:14:08;;;;;;;1.47;1.37;;;9.90;99.90;9.90;100084.00;;;;4955466;28;94595;-69
2022/05/30 05:16:34;;;;;;;1.63;1.33;;;9.90;99.90;10.00;100097.00;;;;4956127;28;88103;-69
2022/05/30 05:19:01;;;;;;;1.60;1.40;;;10.00;99.90;10.00;100094.00;;;;4969951;28;88005;-68
2022/05/30 05:21:33;;;;;;;1.63;0.93;;;10.00;99.90;10.10;100088.00;;;;4955612;28;88726;-70
2022/05/30 05:24:00;;;;;;;3.23;1.67;;;10.00;99.90;10.10;100081.00;;;;4937437;28;87104;-69
2022/05/30 05:26:27;;;;;;;1.03;0.93;;;10.10;99.90;10.20;100084.00;;;;4953479;28;90809;-70
2022/05/30 05:28:53;;;;;;;2.00;0.93;;;10.10;99.90;10.30;100086.00;;;;4955201;28;98977;-70
2022/05/30 05:31:31;;;;;;;1.90;1.27;;;10.20;99.90;10.30;100094.00;;;;4919951;28;90271;-69
2022/05/30 05:34:15;;;;;;;4.40;1.13;;;10.30;99.90;10.40;100085.00;;;;4970546;28;87814;-69
2022/05/30 05:36:46;;;;;;;1.17;1.07;;;10.40;99.90;10.50;100087.00;;;;4954789;28;87901;-69
2022/05/30 05:39:16;;;;;;;2.23;1.43;;;10.50;99.90;10.60;100097.00;;;;4937161;28;89896;-69
2022/05/30 05:41:46;;;;;;;1.53;1.43;;;10.60;99.90;10.70;100092.00;;;;4954988;28;88210;-70
2022/05/30 05:44:14;;;;;;;4.17;1.57;;;10.70;99.90;10.90;100097.00;;;;4969811;28;98307;-70
2022/05/30 05:46:40;;;;;;;1.40;1.30;;;10.80;99.90;11.00;100094.00;;;;4955699;28;87828;-69
2022/05/30 05:49:09;;;;;;;1.43;1.33;;;10.90;99.90;11.10;100099.00;;;;4959335;28;117596;-69
2022/05/30 05:51:37;;;;;;;2.23;1.27;;;11.00;99.90;11.30;100098.00;;;;4953416;28;87895;-69
2022/05/30 05:54:03;;;;;;;1.27;1.10;;;11.20;99.90;11.50;100106.00;;;;4953887;28;87845;-68
2022/05/30 05:56:30;;;;;;;1.77;1.23;;;11.40;99.90;11.70;100096.00;;;;4953955;28;88899;-69
2022/05/30 05:58:56;;;;;;;1.80;1.67;;;11.60;99.90;12.00;100096.00;;;;4954354;28;89030;-69
2022/05/30 06:01:34;;;;;;;1.87;1.60;;;11.90;99.90;12.20;100106.00;;;;4954082;28;88899;-69
2022/05/30 06:04:04;;;;;;;5.53;1.83;;;12.00;99.90;12.40;100106.00;;;;4936894;28;87804;-69
2022/05/30 06:06:29;;;;;;;2.70;1.43;;;12.20;99.90;12.50;100108.00;;;;4954817;28;88123;-69
2022/05/30 06:09:01;;;;;;;3.93;1.87;;;12.40;99.90;12.70;100103.00;;;;4952210;28;117157;-70
2022/05/30 06:11:28;;;;;;;2.70;1.83;;;12.50;99.90;12.90;100109.00;;;;4954009;28;87761;-71
2022/05/30 06:13:54;;;;;;;3.17;1.80;;;12.70;99.90;13.10;100107.00;;;;4952342;28;92080;-70
2022/05/30 06:16:29;;;;;;;2.83;1.87;;;12.90;99.90;13.30;100107.00;;;;4955058;28;87792;-69
2022/05/30 06:18:57;;;;;;;1.30;1.20;;;13.20;99.90;13.40;100112.00;;;;4954150;28;88976;-69
2022/05/30 06:21:25;;;;;;;1.83;1.50;;;13.30;99.90;13.50;100106.00;;;;4953651;28;88824;-69
2022/05/30 06:23:56;;;;;;;2.73;2.07;;;13.30;99.90;13.60;100113.00;;;;4936336;28;87809;-69
2022/05/30 06:26:23;;;;;;;5.63;1.80;;;13.40;99.90;13.70;100105.00;;;;4954327;28;87696;-69
2022/05/30 06:28:49;;;;;;;1.77;1.30;;;13.50;99.90;13.80;100113.00;;;;4953976;28;88789;-69
2022/05/30 06:31:25;;;;;;;2.13;1.47;;;13.60;99.90;13.90;100114.00;;;;4953134;28;110031;-69
2022/05/30 06:33:51;;;;;;;3.83;2.00;;;13.80;99.90;14.10;100116.00;;;;4968927;28;87409;-70
2022/05/30 06:36:25;;;;;;;2.20;1.77;;;13.90;99.90;14.20;100114.00;;;;4953531;28;107232;-69
2022/05/30 06:38:52;;;;;;;2.80;1.23;;;14.10;99.90;14.30;100107.00;;;;4954464;28;87327;-69
2022/05/30 06:41:30;;;;;;;2.90;1.83;;;14.20;99.90;14.40;100115.00;;;;4953981;28;95285;-69
2022/05/30 06:44:02;;;;;;;3.40;1.43;;;14.30;99.90;14.40;100117.00;;;;4949365;28;87704;-69
2022/05/30 06:46:28;;;;;;;3.07;2.03;;;14.40;99.90;14.50;100117.00;;;;4915682;28;88696;-69
2022/05/30 06:48:58;;;;;;;2.07;1.70;;;14.40;99.90;14.50;100117.00;;;;4961866;28;88729;-68
2022/05/30 06:51:27;;;;;;;4.20;2.40;;;14.50;99.90;14.60;100112.00;;;;4954331;28;87778;-70
2022/05/30 06:53:54;;;;;;;2.17;1.87;;;14.50;99.90;14.60;100113.00;;;;4954318;28;87697;-70
2022/05/30 06:56:29;;;;;;;1.73;1.40;;;14.50;99.90;14.60;100123.00;;;;4953653;28;87908;-70
2022/05/30 06:58:55;;;;;;;2.20;1.63;;;14.50;99.90;14.50;100124.00;;;;4953502;28;95129;-70
2022/05/30 07:01:24;;;;;;;1.80;1.53;;;14.50;99.90;14.40;100124.00;;;;4969022;28;88088;-69
2022/05/30 07:03:50;;;;;;;2.17;1.27;;;14.40;99.90;14.30;100123.00;;;;4954571;28;86952;-69
2022/05/30 07:06:21;;;;;;;2.47;1.83;;;14.30;99.90;14.20;100132.00;;;;4956916;28;87843;-69
2022/05/30 07:08:46;;;;;;;1.57;1.20;;;14.20;99.90;14.20;100135.00;;;;4956873;28;87813;-69
2022/05/30 07:11:14;;;;;;;3.50;1.63;;;14.20;99.90;14.10;100123.00;;;;4955480;28;117766;-69
2022/05/30 07:13:39;;;;;;;2.43;1.60;;;14.10;99.90;14.00;100122.00;;;;4958431;28;87898;-69
2022/05/30 07:16:06;;;;;;;2.70;1.60;;;14.00;99.90;14.00;100119.00;;;;4957061;28;108877;-69
2022/05/30 07:18:31;;;;;;;2.33;2.03;;;14.00;99.90;14.20;100129.00;;;;4955583;28;89033;-69
2022/05/30 07:21:05;;;;;;;1.87;1.33;;;14.10;99.90;14.40;100131.00;;;;4956363;28;116958;-69
2022/05/30 07:23:33;;;;;;;5.03;1.63;;;14.20;99.90;14.70;100128.00;;;;4972042;28;88398;-68
2022/05/30 07:26:02;;;;;;;1.80;1.60;;;14.50;99.90;15.10;100135.00;;;;4965893;28;87751;-69
2022/05/30 07:28:29;;;;;;;0.93;0.83;;;14.80;99.90;15.60;100135.00;;;;4956638;28;102037;-69
2022/05/30 07:31:08;;;;;;;1.53;1.43;;;15.30;99.90;15.90;100140.00;;;;4956984;28;88017;-69
2022/05/30 07:33:39;;;;;;;4.07;1.90;;;15.70;99.90;16.10;100139.00;;;;4972137;28;87914;-70
2022/05/30 07:36:11;;;;;;;3.45;1.95;;;15.90;99.00;16.20;100132.00;;;;4938008;28;88434;-70
2022/05/30 07:38:37;;;;;;;1.63;1.17;;;16.10;98.60;16.50;100144.00;;;;4955116;28;88383;-69
2022/05/30 07:41:03;;;;;;;1.30;1.20;;;16.30;97.90;16.80;100137.00;;;;4956349;28;107188;-70
2022/05/30 07:43:29;;;;;;;1.67;1.58;;;16.50;97.30;17.10;100140.00;;;;4956388;28;87942;-70
2022/05/30 07:46:04;;;;;;;2.10;1.38;;;16.90;96.60;17.30;100144.00;;;;4956430;28;103539;-69
2022/05/30 07:48:31;;;;;;;2.95;1.50;;;17.10;94.70;17.40;100139.00;;;;4969616;28;88092;-69
2022/05/30 07:50:58;;;;;;;2.40;1.55;;;17.20;94.00;17.50;100144.00;;;;4955923;28;110477;-69
2022/05/30 07:53:24;;;;;;;3.25;1.60;;;17.30;93.30;17.50;100142.00;;;;4948860;28;87156;-69
2022/05/30 07:55:50;;;;;;;1.77;1.40;;;17.40;93.00;17.60;100133.00;;;;4956399;28;96425;-69
2022/05/30 07:58:16;;;;;;;1.40;1.30;;;17.50;92.50;17.80;100137.00;;;;4955610;28;118063;-69
2022/05/30 08:00:42;;;;;;;1.70;1.25;;;17.60;91.10;17.80;100139.00;;;;4955397;28;115396;-70
2022/05/30 08:03:11;;;;;;;1.73;1.60;;;17.70;89.50;17.90;100131.00;;;;4955963;28;87720;-70
2022/05/30 08:05:39;;;;;;;1.65;1.27;;;17.70;88.40;17.90;100143.00;;;;4956919;28;87641;-70
2022/05/30 08:08:06;;;;;;;3.00;1.77;;;17.80;86.10;18.10;100141.00;;;;4955944;28;87984;-69
2022/05/30 08:10:32;;;;;;;1.00;0.95;;;17.90;85.30;18.20;100137.00;;;;4955844;28;89539;-70
2022/05/30 08:12:58;;;;;;;2.13;1.75;;;18.00;85.10;18.50;100141.00;;;;4954815;28;110509;-69
2022/05/30 08:15:24;;;;;;;1.13;1.02;;;18.20;84.30;18.70;100147.00;;;;4955932;28;109210;-69
2022/05/30 08:17:55;;;;;;;3.50;1.65;;;18.50;82.60;18.60;100150.00;;;;4956103;28;104742;-68
2022/05/30 08:20:21;;;;;;;1.50;1.33;;;18.50;76.80;18.30;100151.00;;;;4970792;28;87753;-69
2022/05/30 08:22:47;;;;;;;1.77;1.13;;;18.30;76.90;18.10;100154.00;;;;4956042;28;87707;-69
2022/05/30 08:25:20;;;;;;;1.27;1.17;;;18.10;76.20;17.90;100152.00;;;;4954723;28;100694;-69
2022/05/30 08:27:47;;;;;;;1.15;0.85;;;17.90;75.50;17.60;100163.00;;;;4955872;28;88391;-70
2022/05/30 08:30:18;;;;;;;2.47;1.38;;;17.70;75.30;17.50;100164.00;;;;4935926;28;88921;-69
2022/05/30 08:32:46;;;;;;;1.17;1.00;;;17.50;76.80;17.30;100160.00;;;;4945366;28;87849;-69
2022/05/30 08:35:15;;;;;;;4.00;1.45;;;17.30;77.90;17.10;100161.00;;;;4955991;28;97584;-69
2022/05/30 08:37:41;;;;;;;2.35;1.80;;;17.10;78.90;16.90;100164.00;;;;4936185;28;111773;-69
2022/05/30 08:43:38;;;;;;;3.00;1.50;;;16.90;81.60;17.00;100158.00;;;;4967764;28;87300;-68
2022/05/30 08:46:20;;;;;;;1.88;1.77;;;16.90;82.60;17.10;100153.00;;;;4956332;28;87759;-68
2022/05/30 08:49:03;;;;;;;1.48;1.38;;;16.90;82.70;17.20;100156.00;;;;4968646;28;107008;-69
2022/05/30 08:52:18;;;;;;;2.33;2.00;;;17.00;82.20;17.10;100153.00;;;;4948528;28;88818;-68
2022/05/30 08:55:18;;;;;;;1.33;1.23;;;17.00;81.80;17.00;100168.00;;;;4927070;28;88936;-68
2022/05/30 08:58:21;;;;;;;1.52;1.38;;;16.90;82.30;16.90;100168.00;;;;4937841;28;87648;-69
2022/05/30 09:00:55;;;;;;;2.00;1.60;;;16.80;84.00;16.60;100175.00;;;;4936897;28;87772;-69
2022/05/30 09:03:43;;;;;;;1.85;1.75;;;16.60;86.20;16.00;100177.00;;;;4917473;28;108600;-70
2022/05/30 09:06:17;;;;;;;4.63;1.83;;;16.20;88.20;15.70;100175.00;;;;4917727;28;90522;-70
2022/05/30 09:08:49;;;;;;;1.83;1.67;;;15.70;89.90;15.50;100181.00;;;;4944034;28;87611;-69
2022/05/30 09:11:35;;;;;;;2.50;1.50;;;15.60;91.10;15.30;100173.00;;;;4935905;28;96367;-70
2022/05/30 09:14:12;;;;;;;1.27;1.17;;;15.40;91.10;15.30;100185.00;;;;4936584;28;87735;-70
2022/05/30 09:16:44;;;;;;;1.67;1.57;;;15.30;91.60;15.30;100186.00;;;;4956448;28;87802;-68
2022/05/30 09:19:20;;;;;;;1.67;1.50;;;15.20;92.20;15.30;100187.00;;;;4936595;28;89092;-68
2022/05/30 09:21:46;;;;;;;2.28;1.65;;;15.20;93.10;15.30;100179.00;;;;4936601;28;105401;-68
2022/05/30 09:24:14;;;;;;;2.13;1.48;;;15.20;93.10;15.30;100191.00;;;;4954999;28;89317;-68
2022/05/30 09:26:40;;;;;;;2.33;1.63;;;15.20;94.40;15.10;100184.00;;;;4965774;28;87717;-69
2022/05/30 09:29:21;;;;;;;6.03;1.50;;;15.10;95.00;15.00;100191.00;;;;4935044;28;87785;-69
2022/05/30 09:31:59;;;;;;;6.73;2.77;;;15.00;95.70;15.00;100178.00;;;;4962956;28;87945;-67
2022/05/30 09:34:31;;;;;;;2.93;2.30;;;14.90;96.50;15.00;100182.00;;;;4950268;28;89456;-69
2022/05/30 09:36:56;;;;;;;3.80;2.37;;;14.90;97.70;15.00;100177.00;;;;4936689;28;87033;-68
2022/05/30 09:39:22;;;;;;;1.77;1.67;;;14.90;98.90;15.00;100185.00;;;;4934507;28;89443;-68
2022/05/30 09:42:01;;;;;;;1.57;1.30;;;14.90;99.60;14.90;100172.00;;;;4948829;28;117975;-69
2022/05/30 09:44:41;;;;;;;2.87;2.13;;;14.80;99.30;14.90;100179.00;;;;4916611;28;90542;-69
2022/05/30 09:47:16;;;;;;;2.75;1.98;;;14.80;99.90;14.80;100188.00;;;;4951765;28;87977;-68
2022/05/30 09:49:46;;;;;;;2.00;1.57;;;14.70;99.90;14.70;100184.00;;;;4940075;28;99638;-69
2022/05/30 09:52:36;;;;;;;2.80;2.10;;;14.60;99.90;14.60;100196.00;;;;4966101;28;88372;-69
2022/05/30 09:55:54;;;;;;;2.63;2.17;;;14.50;99.90;13.80;100186.00;;;;4961577;28;87686;-71
2022/05/30 09:58:45;;;;;;;3.37;2.67;;;14.10;99.90;12.90;100189.00;;;;4922064;28;87831;-71
2022/05/30 10:01:11;;;;;;;2.03;1.83;;;13.20;99.90;12.50;100194.00;;;;4956798;28;87872;-71
2022/05/30 10:03:41;;;;;;;2.93;2.30;;;12.70;99.90;12.30;100190.00;;;;4956982;28;86736;-71
2022/05/30 10:06:13;;;;;;;7.57;2.63;;;12.40;99.90;12.20;100189.00;;;;4966286;28;87721;-70
2022/05/30 10:08:39;;;;;;;3.00;1.93;;;12.20;99.90;12.20;100186.00;;;;4935101;28;87738;-71
2022/05/30 10:11:06;;;;;;;3.03;2.67;;;12.20;99.90;12.20;100196.00;;;;4949120;28;89210;-70
2022/05/30 10:13:35;;;;;;;2.17;1.97;;;12.20;99.90;12.30;100182.00;;;;4963548;28;107321;-72
2022/05/30 10:16:06;;;;;;;1.70;1.60;;;12.20;99.90;12.40;100180.00;;;;4934594;28;88295;-69
2022/05/30 10:18:49;;;;;;;2.00;1.80;;;12.30;99.90;12.50;100187.00;;;;4935026;28;87615;-70
2022/05/30 10:28:36;;;;;;;2.70;2.00;;;12.80;99.90;13.50;100173.00;;;;4918892;28;87745;-67
2022/05/30 10:31:28;;;;;;;1.93;1.73;;;13.20;99.90;14.00;100169.00;;;;4916083;28;97264;-67
2022/05/30 10:34:10;;;;;;;2.10;1.87;;;13.60;99.90;14.60;100177.00;;;;4948731;28;98406;-68
2022/05/30 10:37:00;;;;;;;2.47;1.87;;;14.20;99.90;14.90;100175.00;;;;4949466;28;88186;-69
2022/05/30 10:39:55;;;;;;;3.43;1.83;;;14.70;99.90;15.00;100183.00;;;;4935781;28;88660;-70
2022/05/30 10:42:46;;;;;;;2.03;1.80;;;14.80;99.90;15.10;100200.00;;;;4946884;28;88064;-70
2022/05/30 10:45:21;;;;;;;2.13;1.50;;;15.00;99.90;15.10;100195.00;;;;4919691;28;88019;-71
2022/05/30 10:47:52;;;;;;;2.23;2.03;;;15.00;99.90;14.80;100200.00;;;;4915971;28;88553;-70
2022/05/30 10:50:46;;;;;;;1.80;1.50;;;14.90;99.90;14.50;100212.00;;;;4929000;28;111006;-70
2022/05/30 10:54:11;;;;;;;5.87;1.70;;;14.60;99.90;14.10;100217.00;;;;4916941;28;87769;-72
2022/05/30 10:56:41;;;;;;;2.63;2.43;;;14.40;99.90;13.90;100223.00;;;;4873230;28;91666;-72
2022/05/30 10:59:34;;;;;;;3.20;2.57;;;14.10;99.90;13.70;100218.00;;;;4899961;28;93651;-72
2022/05/30 11:02:19;;;;;;;1.77;1.57;;;13.80;99.90;13.70;100219.00;;;;4898085;28;110513;-72
2022/05/30 11:05:21;;;;;;;3.20;2.47;;;13.70;99.90;13.70;100213.00;;;;4916844;28;87844;-71
2022/05/30 11:08:20;;;;;;;2.67;1.77;;;13.70;99.90;14.00;100209.00;;;;4934203;28;88798;-70
2022/05/30 11:10:58;;;;;;;3.70;2.40;;;13.90;99.90;14.60;100199.00;;;;4934824;28;87768;-71
2022/05/30 11:13:48;;;;;;;2.80;2.33;;;14.30;99.90;15.30;100212.00;;;;4918971;28;87861;-70
2022/05/30 11:16:44;;;;;;;6.90;4.40;;;14.90;99.90;15.80;100203.00;;;;4931929;28;89019;-70
2022/05/30 11:19:54;;;;;;;3.92;2.85;;;15.40;99.90;16.40;100199.00;;;;4919283;28;87929;-71
2022/05/30 11:22:45;;;;;;;4.93;3.88;;;15.90;99.90;17.10;100206.00;;;;4903378;28;87996;-70
2022/05/30 11:25:42;;;;;;;4.97;2.75;;;16.60;99.90;17.90;100204.00;;;;4945030;28;88420;-70
2022/05/30 11:28:58;;;;;;;2.88;2.35;;;17.30;99.90;18.80;100201.00;;;;4958407;28;87031;-68
2022/05/30 11:31:50;;;;;;;2.63;1.60;;;18.10;99.90;19.40;100199.00;;;;4967743;28;87847;-67